Time;durP1;ratioP1;P1;durP2;ratioP2;P2;SDS_P1;SDS_P2;PMS_P1;PMS_P2;Temp;Humidity;BMP_temperature;BMP_pressure;BME280_temperature;BME280_humidity;BME280_pressure;Samples;Min_cycle;Max_cycle;Signal;HPM_P1;HPM_P2
2023/04/15 00:00:58;;;;;;;23.27;13.35;;;4.70;99.90;;;;;;5119780;27;20046;-47
2023/04/15 00:03:25;;;;;;;19.70;11.55;;;4.70;99.90;;;;;;5111910;27;20534;-45
2023/04/15 00:05:52;;;;;;;18.83;11.85;;;4.70;99.90;;;;;;5112037;28;20055;-46
2023/04/15 00:08:19;;;;;;;13.60;8.38;;;4.70;99.90;;;;;;5111584;28;20050;-46
2023/04/15 00:10:46;;;;;;;9.77;5.32;;;4.70;99.90;;;;;;5111747;28;20123;-45
2023/04/15 00:13:14;;;;;;;;;;;4.70;99.90;;;;;;5112129;28;20028;-46
2023/04/15 00:15:41;;;;;;;10.68;6.13;;;4.60;99.90;;;;;;5112786;28;19931;-45
2023/04/15 00:18:08;;;;;;;;;;;4.60;99.90;;;;;;5112123;28;20554;-47
2023/04/15 00:20:34;;;;;;;19.83;10.15;;;4.60;99.90;;;;;;5112464;28;20318;-46
2023/04/15 00:23:02;;;;;;;29.13;15.63;;;4.60;99.90;;;;;;5121310;27;20043;-45
2023/04/15 00:25:29;;;;;;;16.50;9.43;;;4.60;99.90;;;;;;5108101;27;20407;-46
2023/04/15 00:27:56;;;;;;;12.10;7.30;;;4.50;99.90;;;;;;5133602;27;20080;-45
2023/04/15 00:30:23;;;;;;;12.00;5.93;;;4.60;99.90;;;;;;5100045;28;20097;-45
2023/04/15 00:32:49;;;;;;;13.98;6.35;;;4.60;99.90;;;;;;5112361;28;20051;-46
2023/04/15 00:35:20;;;;;;;9.68;5.07;;;4.60;99.90;;;;;;5112669;28;20035;-45
2023/04/15 00:37:48;;;;;;;5.95;3.83;;;4.60;99.90;;;;;;5104935;27;20499;-45
2023/04/15 00:40:18;;;;;;;7.13;3.88;;;4.60;99.90;;;;;;5124239;27;20122;-46
2023/04/15 00:42:45;;;;;;;8.80;4.70;;;4.60;99.90;;;;;;5133266;27;20043;-45
2023/04/15 00:45:12;;;;;;;;;;;4.60;99.90;;;;;;5115014;27;20039;-46
2023/04/15 00:47:41;;;;;;;9.63;4.80;;;4.50;99.90;;;;;;5113735;27;20414;-45
2023/04/15 00:50:09;;;;;;;12.93;4.97;;;4.50;99.90;;;;;;5105699;27;20636;-45
2023/04/15 00:52:37;;;;;;;10.75;5.97;;;4.50;99.90;;;;;;5127189;27;20711;-47
2023/04/15 00:55:05;;;;;;;10.60;6.45;;;4.50;99.90;;;;;;5131177;27;20031;-45
2023/04/15 00:57:32;;;;;;;11.63;5.97;;;4.50;99.90;;;;;;5092970;28;20092;-45
2023/04/15 00:59:59;;;;;;;12.13;7.22;;;4.50;99.90;;;;;;5094305;28;20100;-45
2023/04/15 01:02:26;;;;;;;;;;;4.50;99.90;;;;;;5106784;28;20044;-45
2023/04/15 01:04:55;;;;;;;10.35;6.28;;;4.50;99.90;;;;;;5093195;28;20007;-45
2023/04/15 01:07:22;;;;;;;11.35;5.25;;;4.60;99.90;;;;;;5093156;28;20093;-45
2023/04/15 01:09:48;;;;;;;9.00;4.30;;;4.60;99.90;;;;;;5097804;28;20036;-45
2023/04/15 01:12:16;;;;;;;8.50;4.70;;;4.60;99.90;;;;;;5117196;27;20073;-46
2023/04/15 01:14:42;;;;;;;;;;;4.60;99.90;;;;;;5134615;27;20079;-45
2023/04/15 01:17:09;;;;;;;11.32;5.32;;;4.60;99.90;;;;;;5135297;27;19924;-45
2023/04/15 01:19:37;;;;;;;10.02;4.88;;;4.60;99.90;;;;;;5093162;28;20039;-45
2023/04/15 01:22:04;;;;;;;10.30;4.20;;;4.60;99.90;;;;;;5093366;28;20457;-46
2023/04/15 01:24:32;;;;;;;7.75;3.85;;;4.60;99.90;;;;;;5093246;28;20499;-46
2023/04/15 01:26:59;;;;;;;11.75;5.03;;;4.50;99.90;;;;;;5107015;27;20043;-45
2023/04/15 01:29:26;;;;;;;16.38;8.55;;;4.50;99.90;;;;;;5106217;27;20453;-46
2023/04/15 01:31:54;;;;;;;;;;;4.50;99.90;;;;;;5108358;27;20453;-45
2023/04/15 01:34:25;;;;;;;12.35;5.53;;;4.60;99.90;;;;;;5093569;28;19926;-46
2023/04/15 01:36:53;;;;;;;10.40;5.57;;;4.50;99.90;;;;;;5091602;28;20040;-45
2023/04/15 01:39:20;;;;;;;11.85;5.57;;;4.50;99.90;;;;;;5092490;28;20043;-45
2023/04/15 01:41:48;;;;;;;6.15;3.42;;;4.50;99.90;;;;;;5095200;28;20088;-45
2023/04/15 01:44:15;;;;;;;7.80;4.75;;;4.50;99.90;;;;;;5092831;28;20046;-45
2023/04/15 01:46:42;;;;;;;11.02;5.28;;;4.60;99.90;;;;;;5111324;28;20050;-45
2023/04/15 01:49:08;;;;;;;10.27;4.25;;;4.50;99.90;;;;;;5113164;28;20442;-45
2023/04/15 01:51:35;;;;;;;16.30;7.25;;;4.50;99.90;;;;;;5112082;28;20403;-45
2023/04/15 01:54:02;;;;;;;13.80;6.63;;;4.60;99.90;;;;;;5113542;28;20167;-45
2023/04/15 01:56:29;;;;;;;;;;;4.60;99.90;;;;;;5113876;28;20092;-45
2023/04/15 01:58:56;;;;;;;9.93;5.25;;;4.50;99.90;;;;;;5110206;28;20406;-45
2023/04/15 02:01:22;;;;;;;8.32;4.18;;;4.50;99.90;;;;;;5092973;28;20097;-45
2023/04/15 02:03:49;;;;;;;7.72;4.22;;;4.50;99.90;;;;;;5109919;28;20039;-45
2023/04/15 02:06:17;;;;;;;9.25;4.97;;;4.50;99.90;;;;;;5092722;28;20043;-45
2023/04/15 02:08:44;;;;;;;;;;;4.50;99.90;;;;;;5110516;28;20408;-45
2023/04/15 02:11:10;;;;;;;7.65;4.40;;;4.50;99.90;;;;;;5092521;28;19920;-45
2023/04/15 02:13:37;;;;;;;9.60;4.93;;;4.40;99.90;;;;;;5092727;28;20412;-45
2023/04/15 02:16:15;;;;;;;10.05;5.60;;;4.40;99.90;;;;;;5092741;28;20627;-45
2023/04/15 02:18:46;;;;;;;15.85;6.30;;;4.40;99.90;;;;;;5092010;28;20049;-45
2023/04/15 02:21:13;;;;;;;13.02;6.03;;;4.40;99.90;;;;;;5107581;22;20527;-45
2023/04/15 02:24:30;;;;;;;10.25;5.82;;;4.40;99.90;;;;;;5080912;28;20064;-45
2023/04/15 02:26:57;;;;;;;13.70;6.28;;;4.40;99.90;;;;;;5050963;28;20390;-46
2023/04/15 02:29:24;;;;;;;17.10;8.65;;;4.50;99.90;;;;;;5052429;28;20048;-47
2023/04/15 02:31:51;;;;;;;14.20;8.40;;;4.50;99.90;;;;;;5059211;28;20072;-47
2023/04/15 02:34:19;;;;;;;15.00;8.32;;;4.50;99.90;;;;;;5083325;28;20037;-47
2023/04/15 02:36:47;;;;;;;12.50;8.00;;;4.60;99.90;;;;;;5070587;28;20444;-46
2023/04/15 02:39:15;;;;;;;17.52;9.27;;;4.60;99.90;;;;;;5051381;28;20059;-46
2023/04/15 02:41:42;;;;;;;15.30;8.18;;;4.70;99.90;;;;;;5052943;28;20051;-47
2023/04/15 02:44:11;;;;;;;13.38;7.82;;;4.70;99.90;;;;;;5054078;28;20048;-46
2023/04/15 02:46:40;;;;;;;17.10;9.00;;;4.70;99.90;;;;;;5090483;28;20378;-46
2023/04/15 02:49:07;;;;;;;15.70;7.90;;;4.70;99.90;;;;;;5072124;28;20055;-46
2023/04/15 02:51:35;;;;;;;14.60;5.53;;;4.70;99.90;;;;;;5074316;28;20048;-46
2023/04/15 02:54:01;;;;;;;6.82;3.67;;;4.70;99.90;;;;;;5058116;28;20382;-46
2023/04/15 02:56:29;;;;;;;5.30;3.22;;;4.50;99.90;;;;;;5057231;28;20052;-47
2023/04/15 02:58:57;;;;;;;8.73;3.88;;;4.50;99.90;;;;;;5087365;28;20040;-46
2023/04/15 03:01:24;;;;;;;6.93;3.65;;;4.50;99.90;;;;;;5068892;28;20519;-46
2023/04/15 03:03:51;;;;;;;8.27;3.72;;;4.50;99.90;;;;;;5074846;28;20036;-46
2023/04/15 03:06:18;;;;;;;8.10;3.80;;;4.50;99.90;;;;;;5075055;28;20501;-46
2023/04/15 03:08:45;;;;;;;8.70;3.83;;;4.50;99.90;;;;;;5055407;28;20048;-46
2023/04/15 03:11:14;;;;;;;8.77;3.75;;;4.50;99.90;;;;;;5055914;28;20459;-46
2023/04/15 03:13:42;;;;;;;4.55;2.45;;;4.50;99.90;;;;;;5073778;28;20118;-46
2023/04/15 03:16:19;;;;;;;6.65;3.55;;;4.50;99.90;;;;;;5062509;28;20472;-48
2023/04/15 03:18:46;;;;;;;9.52;3.83;;;4.50;99.90;;;;;;5055358;28;20451;-46
2023/04/15 03:21:13;;;;;;;10.60;4.70;;;4.50;99.90;;;;;;5055666;28;20420;-46
2023/04/15 03:23:40;;;;;;;9.00;4.93;;;4.50;99.90;;;;;;5058754;28;20049;-46
2023/04/15 03:26:07;;;;;;;10.55;4.72;;;4.50;99.90;;;;;;5057702;28;20059;-46
2023/04/15 03:28:35;;;;;;;9.35;4.18;;;4.50;99.90;;;;;;5075233;28;20044;-46
2023/04/15 03:31:02;;;;;;;11.13;4.65;;;4.50;99.90;;;;;;5073882;28;20040;-47
2023/04/15 03:33:29;;;;;;;9.55;4.57;;;4.50;99.90;;;;;;5072221;28;20072;-47
2023/04/15 03:35:56;;;;;;;12.65;6.15;;;4.50;99.90;;;;;;5072738;28;20094;-47
2023/04/15 03:38:23;;;;;;;12.35;6.75;;;4.50;99.90;;;;;;5072114;28;20044;-47
2023/04/15 03:40:49;;;;;;;14.50;6.03;;;4.60;99.90;;;;;;5072490;28;20041;-47
2023/04/15 03:43:16;;;;;;;9.98;4.90;;;4.60;99.90;;;;;;5082430;28;20059;-46
2023/04/15 03:45:43;;;;;;;12.82;6.88;;;4.70;99.90;;;;;;5088911;28;20488;-46
2023/04/15 03:48:09;;;;;;;12.45;5.32;;;4.70;99.90;;;;;;5093559;28;20109;-46
2023/04/15 03:50:44;;;;;;;11.25;5.63;;;4.70;99.90;;;;;;5090879;28;20914;-46
2023/04/15 03:53:10;;;;;;;8.00;3.95;;;4.70;99.90;;;;;;5083943;28;20061;-47
2023/04/15 03:55:37;;;;;;;12.18;6.07;;;4.70;99.90;;;;;;5093698;28;20044;-47
2023/04/15 03:58:04;;;;;;;12.65;7.15;;;4.70;99.90;;;;;;5091954;28;20094;-46
2023/04/15 04:00:30;;;;;;;15.43;7.65;;;4.70;99.90;;;;;;5092705;28;20101;-46
2023/04/15 04:02:57;;;;;;;11.95;7.22;;;4.70;99.90;;;;;;5092282;28;20048;-47
2023/04/15 04:05:24;;;;;;;10.70;5.43;;;4.70;99.90;;;;;;5093237;28;20489;-46
2023/04/15 04:07:51;;;;;;;10.95;5.60;;;4.70;99.90;;;;;;5073301;28;20036;-46
2023/04/15 04:10:17;;;;;;;10.57;4.05;;;4.70;99.90;;;;;;5072624;28;20098;-46
2023/04/15 04:12:44;;;;;;;9.85;3.90;;;4.60;99.90;;;;;;5072750;28;20040;-46
2023/04/15 04:15:11;;;;;;;10.30;3.80;;;4.60;99.90;;;;;;5080612;28;20051;-46
2023/04/15 04:17:37;;;;;;;4.55;2.67;;;4.60;99.90;;;;;;5092949;28;20044;-46
2023/04/15 04:20:05;;;;;;;6.60;3.58;;;4.50;99.90;;;;;;5092370;28;20051;-46
2023/04/15 04:22:37;;;;;;;9.10;4.15;;;4.50;99.90;;;;;;5092626;28;20533;-46
2023/04/15 04:25:05;;;;;;;9.15;5.55;;;4.50;99.90;;;;;;5081935;28;20072;-45
2023/04/15 04:27:31;;;;;;;;;;;4.50;99.90;;;;;;5073068;28;20036;-45
2023/04/15 04:29:58;;;;;;;11.50;5.07;;;4.50;99.90;;;;;;5072006;28;19925;-45
2023/04/15 04:32:24;;;;;;;8.38;5.07;;;4.60;99.90;;;;;;5072271;28;20093;-46
2023/04/15 04:34:51;;;;;;;8.90;4.45;;;4.50;99.90;;;;;;5081522;28;20670;-46
2023/04/15 04:37:18;;;;;;;10.45;4.60;;;4.60;99.90;;;;;;5072613;28;20068;-45
2023/04/15 04:39:45;;;;;;;11.07;4.88;;;4.60;99.90;;;;;;5071981;28;20068;-45
2023/04/15 04:42:11;;;;;;;16.42;6.20;;;4.60;99.90;;;;;;5072398;28;20063;-45
2023/04/15 04:44:38;;;;;;;14.43;6.88;;;4.60;99.90;;;;;;5085540;28;20070;-46
2023/04/15 04:47:06;;;;;;;12.65;7.05;;;4.70;99.90;;;;;;5089341;28;20115;-46
2023/04/15 04:49:33;;;;;;;10.45;5.10;;;4.70;99.90;;;;;;5073442;28;20040;-46
2023/04/15 04:52:00;;;;;;;10.52;5.55;;;4.70;99.90;;;;;;5053252;28;20460;-45
2023/04/15 04:54:27;;;;;;;9.88;4.72;;;4.70;99.90;;;;;;5070664;28;20070;-45
2023/04/15 04:56:54;;;;;;;11.60;5.30;;;4.70;99.90;;;;;;5071927;28;20113;-45
2023/04/15 04:59:20;;;;;;;12.35;4.70;;;4.60;99.90;;;;;;5071481;28;20528;-45
2023/04/15 05:01:47;;;;;;;9.35;4.28;;;4.60;99.90;;;;;;5070890;28;20033;-46
2023/04/15 05:04:14;;;;;;;16.20;7.68;;;4.60;99.90;;;;;;5071705;28;20052;-45
2023/04/15 05:06:41;;;;;;;28.77;13.38;;;4.60;99.90;;;;;;5070777;28;20047;-46
2023/04/15 05:09:07;;;;;;;22.10;10.15;;;4.60;99.90;;;;;;5071075;28;20068;-46
2023/04/15 05:11:34;;;;;;;12.52;6.07;;;4.60;99.90;;;;;;5072075;28;20045;-46
2023/04/15 05:14:01;;;;;;;16.92;6.95;;;4.60;99.90;;;;;;5070708;28;20064;-45
2023/04/15 05:16:28;;;;;;;14.70;6.40;;;4.60;99.90;;;;;;5071723;28;20064;-45
2023/04/15 05:18:54;;;;;;;14.40;5.68;;;4.50;99.90;;;;;;5055612;28;20086;-46
2023/04/15 05:21:21;;;;;;;12.68;5.55;;;4.50;99.90;;;;;;5071256;28;20044;-46
2023/04/15 05:23:48;;;;;;;9.57;6.03;;;4.40;99.90;;;;;;5071384;28;20075;-46
2023/04/15 05:26:15;;;;;;;9.93;5.03;;;4.40;99.90;;;;;;5071595;28;20111;-45
2023/04/15 05:28:42;;;;;;;12.05;5.40;;;4.40;99.90;;;;;;5074319;28;20505;-45
2023/04/15 05:31:08;;;;;;;11.23;5.82;;;4.40;99.90;;;;;;5079276;28;20048;-45
2023/04/15 05:33:35;;;;;;;11.38;5.47;;;4.40;99.90;;;;;;5079443;28;20487;-46
2023/04/15 05:36:02;;;;;;;10.18;5.45;;;4.40;99.90;;;;;;5086070;28;20048;-46
2023/04/15 05:38:29;;;;;;;9.45;4.38;;;4.50;99.90;;;;;;5090305;28;20044;-45
2023/04/15 05:40:56;;;;;;;10.23;3.80;;;4.50;99.90;;;;;;5074942;28;20098;-46
2023/04/15 05:43:23;;;;;;;9.75;4.72;;;4.50;99.90;;;;;;5052975;28;20078;-45
2023/04/15 05:45:49;;;;;;;5.10;3.65;;;4.60;99.90;;;;;;5069708;28;20106;-46
2023/04/15 05:48:16;;;;;;;11.50;4.97;;;4.60;99.90;;;;;;5074866;28;20040;-45
2023/04/15 05:50:43;;;;;;;13.95;6.10;;;4.70;99.90;;;;;;5083179;28;20060;-46
2023/04/15 05:53:10;;;;;;;17.67;6.55;;;4.70;99.90;;;;;;5091417;28;20496;-45
2023/04/15 05:55:37;;;;;;;;;;;4.70;99.90;;;;;;5091885;28;20073;-46
2023/04/15 05:58:03;;;;;;;15.65;7.40;;;4.70;99.90;;;;;;5088198;28;20441;-45
2023/04/15 06:00:30;;;;;;;17.40;9.02;;;4.70;99.90;;;;;;5090770;28;20097;-45
2023/04/15 06:02:57;;;;;;;18.85;10.25;;;4.80;99.90;;;;;;5090532;28;20048;-45
2023/04/15 06:05:24;;;;;;;16.50;10.15;;;4.80;99.90;;;;;;5091249;28;20069;-46
2023/04/15 06:07:51;;;;;;;15.43;10.02;;;4.80;99.90;;;;;;5085929;28;20060;-45
2023/04/15 06:10:18;;;;;;;18.33;11.15;;;4.90;99.90;;;;;;5082642;28;20104;-46
2023/04/15 06:12:45;;;;;;;20.75;11.77;;;4.90;99.90;;;;;;5091603;28;20050;-46
2023/04/15 06:15:11;;;;;;;11.02;5.30;;;5.00;99.90;;;;;;5073246;28;20447;-45
2023/04/15 06:17:38;;;;;;;10.32;4.00;;;4.90;99.90;;;;;;5081531;28;20045;-45
2023/04/15 06:20:07;;;;;;;10.85;4.55;;;4.80;99.90;;;;;;5086161;28;20060;-45
2023/04/15 06:22:35;;;;;;;12.32;3.75;;;4.80;99.90;;;;;;5070769;28;20513;-46
2023/04/15 06:25:02;;;;;;;6.47;3.13;;;4.70;99.90;;;;;;5072516;28;20071;-47
2023/04/15 06:27:29;;;;;;;6.60;3.50;;;4.80;99.90;;;;;;5075014;28;20090;-46
2023/04/15 06:29:56;;;;;;;13.30;7.00;;;4.90;99.90;;;;;;5081385;28;20036;-45
2023/04/15 06:32:22;;;;;;;8.88;4.50;;;5.00;99.90;;;;;;5074854;28;20041;-46
2023/04/15 06:34:49;;;;;;;6.90;3.92;;;5.10;99.90;;;;;;5074467;28;20040;-45
2023/04/15 06:37:16;;;;;;;11.82;4.47;;;5.10;99.90;;;;;;5074878;28;20052;-45
2023/04/15 06:39:43;;;;;;;9.63;5.25;;;5.10;99.90;;;;;;5082880;28;20060;-45
2023/04/15 06:42:10;;;;;;;15.07;7.70;;;5.20;99.90;;;;;;5093692;28;20086;-45
2023/04/15 06:44:37;;;;;;;;;;;5.30;99.90;;;;;;5095304;28;20559;-45
2023/04/15 06:47:04;;;;;;;16.00;6.65;;;5.30;99.90;;;;;;5092649;28;19966;-46
2023/04/15 06:49:32;;;;;;;9.85;5.22;;;5.30;99.90;;;;;;5086016;28;20089;-45
2023/04/15 06:51:59;;;;;;;11.02;5.15;;;5.30;99.90;;;;;;5088570;28;20110;-45
2023/04/15 06:54:26;;;;;;;8.13;5.32;;;5.40;99.90;;;;;;5074286;28;20029;-46
2023/04/15 06:56:53;;;;;;;9.60;5.32;;;5.50;99.90;;;;;;5073959;28;20051;-45
2023/04/15 06:59:19;;;;;;;7.70;5.43;;;5.50;99.90;;;;;;5082015;28;20072;-46
2023/04/15 07:01:46;;;;;;;9.68;5.10;;;5.60;99.90;;;;;;5089688;28;20040;-46
2023/04/15 07:04:13;;;;;;;10.90;5.22;;;5.70;99.90;;;;;;5093980;28;20040;-46
2023/04/15 07:06:40;;;;;;;6.90;4.20;;;5.70;99.90;;;;;;5080847;28;20066;-46
2023/04/15 07:09:07;;;;;;;;;;;5.80;99.90;;;;;;5083115;28;20393;-45
2023/04/15 07:11:35;;;;;;;4.43;3.00;;;5.90;99.90;;;;;;5075307;28;19920;-46
2023/04/15 07:14:01;;;;;;;8.90;3.25;;;5.90;99.90;;;;;;5065346;28;20064;-45
2023/04/15 07:16:28;;;;;;;7.35;2.80;;;5.90;99.90;;;;;;5073973;28;20044;-45
2023/04/15 07:18:56;;;;;;;6.40;3.53;;;5.80;99.90;;;;;;5089066;28;20036;-45
2023/04/15 07:21:24;;;;;;;6.28;3.65;;;5.90;99.90;;;;;;5093720;28;20090;-46
2023/04/15 07:23:51;;;;;;;6.43;4.20;;;6.00;99.90;;;;;;5090938;28;20112;-46
2023/04/15 07:26:18;;;;;;;6.30;3.63;;;6.40;99.90;;;;;;5085764;28;20039;-45
2023/04/15 07:28:46;;;;;;;14.30;6.38;;;6.10;99.90;;;;;;5089990;28;20105;-46
2023/04/15 07:31:13;;;;;;;6.28;4.13;;;6.20;99.90;;;;;;5082993;28;20105;-46
2023/04/15 07:33:40;;;;;;;8.75;3.72;;;6.40;99.90;;;;;;5092379;28;20052;-45
2023/04/15 07:36:07;;;;;;;9.52;4.57;;;6.40;99.90;;;;;;5092107;28;20052;-46
2023/04/15 07:38:34;;;;;;;7.43;4.45;;;6.20;99.90;;;;;;5086884;28;20040;-45
2023/04/15 07:41:01;;;;;;;8.65;3.45;;;6.30;99.90;;;;;;5087806;28;20048;-46
2023/04/15 07:43:28;;;;;;;6.53;3.55;;;6.30;99.90;;;;;;5092918;28;20036;-46
2023/04/15 07:45:54;;;;;;;7.75;3.60;;;6.30;99.90;;;;;;5093273;28;20044;-46
2023/04/15 07:48:21;;;;;;;7.32;3.40;;;6.40;99.90;;;;;;5079068;28;20102;-46
2023/04/15 07:50:48;;;;;;;6.70;3.60;;;6.50;99.90;;;;;;5072853;28;20071;-46
2023/04/15 07:53:14;;;;;;;6.70;3.10;;;6.60;99.90;;;;;;5072789;28;20094;-45
2023/04/15 07:55:41;;;;;;;6.40;3.10;;;6.40;99.90;;;;;;5076748;28;20048;-45
2023/04/15 07:58:08;;;;;;;8.73;4.65;;;6.30;99.90;;;;;;5072836;28;20036;-46
2023/04/15 08:00:37;;;;;;;13.43;5.47;;;6.50;99.90;;;;;;5074547;28;20072;-45
2023/04/15 08:03:03;;;;;;;8.13;4.22;;;6.50;99.90;;;;;;5074548;28;20106;-46
2023/04/15 08:05:30;;;;;;;8.90;4.43;;;6.70;99.90;;;;;;5071618;28;20076;-45
2023/04/15 08:07:57;;;;;;;8.85;4.13;;;6.80;99.90;;;;;;5072715;28;20522;-46
2023/04/15 08:10:24;;;;;;;8.63;4.47;;;7.00;99.90;;;;;;5086907;28;20032;-46
2023/04/15 08:12:53;;;;;;;8.88;5.10;;;7.00;99.90;;;;;;5072500;28;20044;-46
2023/04/15 08:15:20;;;;;;;8.32;3.90;;;7.10;99.90;;;;;;5072441;28;20041;-46
2023/04/15 08:17:47;;;;;;;;;;;6.90;99.90;;;;;;5093074;28;20106;-46
2023/04/15 08:20:13;;;;;;;6.32;3.33;;;6.80;99.90;;;;;;5079458;28;19927;-46
2023/04/15 08:22:41;;;;;;;8.40;3.05;;;6.60;99.90;;;;;;5091124;22;20043;-48
2023/04/15 08:25:09;;;;;;;;;;;6.60;99.90;;;;;;5066360;28;20109;-46
2023/04/15 08:27:35;;;;;;;4.10;2.50;;;6.40;99.90;;;;;;5072114;28;20027;-46
2023/04/15 08:30:03;;;;;;;4.20;2.50;;;6.30;99.90;;;;;;5073501;28;20087;-46
2023/04/15 08:32:31;;;;;;;7.32;3.05;;;6.30;99.90;;;;;;5105105;28;20514;-46
2023/04/15 08:34:58;;;;;;;5.50;2.75;;;6.40;99.90;;;;;;5112500;28;20051;-47
2023/04/15 08:37:25;;;;;;;7.70;2.50;;;6.60;99.90;;;;;;5112465;28;20100;-47
2023/04/15 08:39:52;;;;;;;7.13;2.53;;;6.70;99.90;;;;;;5104856;28;20075;-48
2023/04/15 08:42:26;;;;;;;3.03;2.58;;;6.70;99.90;;;;;;5112070;28;20081;-48
2023/04/15 08:44:54;;;;;;;6.05;2.20;;;6.60;99.90;;;;;;5094185;28;20108;-50
2023/04/15 08:47:26;;;;;;;7.95;2.45;;;6.70;99.90;;;;;;5107415;28;20044;-46
2023/04/15 08:49:56;;;;;;;9.05;4.85;;;6.70;99.90;;;;;;5087805;28;20044;-47
2023/04/15 08:52:25;;;;;;;9.45;3.88;;;6.80;99.90;;;;;;5099418;28;20062;-47
2023/04/15 08:54:56;;;;;;;4.80;2.85;;;6.60;99.90;;;;;;5090008;28;20511;-49
2023/04/15 08:57:27;;;;;;;11.23;5.25;;;6.70;99.90;;;;;;5081826;28;20158;-47
2023/04/15 08:59:57;;;;;;;7.47;3.17;;;6.70;99.90;;;;;;5105495;28;20044;-46
2023/04/15 09:02:26;;;;;;;8.20;3.40;;;6.60;99.90;;;;;;5109542;28;20576;-47
2023/04/15 09:04:53;;;;;;;16.20;7.13;;;6.50;99.90;;;;;;5108809;28;20056;-47
2023/04/15 09:07:20;;;;;;;63.92;20.13;;;6.60;99.90;;;;;;5111207;28;20035;-46
2023/04/15 09:09:47;;;;;;;32.47;12.00;;;6.40;99.90;;;;;;5111659;28;20043;-47
2023/04/15 09:12:15;;;;;;;40.05;14.20;;;6.40;99.90;;;;;;5090810;28;20094;-48
2023/04/15 09:14:47;;;;;;;9.43;3.72;;;6.40;99.90;;;;;;5086861;28;20044;-47
2023/04/15 09:17:18;;;;;;;174.18;52.30;;;6.10;99.90;;;;;;5073753;28;20105;-46
2023/04/15 09:19:45;;;;;;;47.78;18.27;;;6.10;99.90;;;;;;5090920;28;20085;-48
2023/04/15 09:22:12;;;;;;;24.83;10.75;;;6.20;99.90;;;;;;5082667;28;20059;-47
2023/04/15 09:24:41;;;;;;;4.95;3.20;;;6.30;99.90;;;;;;5091689;28;20124;-46
2023/04/15 09:27:08;;;;;;;8.55;3.03;;;6.30;99.90;;;;;;5096491;28;20035;-45
2023/04/15 09:29:35;;;;;;;9.60;3.35;;;6.40;99.90;;;;;;5104386;28;20081;-46
2023/04/15 09:32:13;;;;;;;6.43;3.22;;;6.50;99.90;;;;;;5110830;28;20048;-47
2023/04/15 09:34:39;;;;;;;6.90;4.10;;;6.50;99.90;;;;;;5110810;28;20036;-47
2023/04/15 09:37:08;;;;;;;4.95;2.83;;;6.60;99.90;;;;;;5109698;28;20499;-47
2023/04/15 09:39:46;;;;;;;7.32;3.85;;;6.70;99.90;;;;;;5085013;28;20048;-47
2023/04/15 09:42:13;;;;;;;8.32;3.50;;;6.60;99.90;;;;;;5090060;28;20722;-46
2023/04/15 09:44:39;;;;;;;4.75;2.50;;;6.50;99.90;;;;;;5082887;28;20525;-46
2023/04/15 09:47:06;;;;;;;4.75;2.45;;;6.30;99.90;;;;;;5091350;28;20048;-47
2023/04/15 09:49:33;;;;;;;8.00;3.42;;;6.50;99.90;;;;;;5090340;28;20048;-46
2023/04/15 09:52:00;;;;;;;5.07;3.33;;;6.60;99.90;;;;;;5081477;28;20047;-47
2023/04/15 09:54:36;;;;;;;5.93;2.65;;;6.70;99.90;;;;;;5092487;28;20028;-47
2023/04/15 09:57:08;;;;;;;5.47;2.38;;;6.90;99.90;;;;;;5072694;28;20052;-47
2023/04/15 09:59:36;;;;;;;5.53;2.33;;;7.00;99.90;;;;;;5070589;28;20049;-49
2023/04/15 10:02:06;;;;;;;6.82;2.70;;;6.90;99.90;;;;;;5095436;28;20047;-46
2023/04/15 10:04:38;;;;;;;4.25;2.50;;;7.00;99.90;;;;;;5111440;28;20524;-47
2023/04/15 10:07:06;;;;;;;6.18;2.67;;;7.00;99.90;;;;;;5107659;28;20077;-45
2023/04/15 10:09:35;;;;;;;11.00;4.38;;;6.90;99.90;;;;;;5111210;28;20040;-45
2023/04/15 10:12:03;;;;;;;7.30;3.03;;;7.00;99.90;;;;;;5110617;28;20047;-50
2023/04/15 10:14:33;;;;;;;20.92;7.97;;;6.90;99.90;;;;;;5108682;28;20044;-45
2023/04/15 10:17:03;;;;;;;28.83;11.70;;;6.90;99.90;;;;;;5083044;28;20400;-46
2023/04/15 10:19:36;;;;;;;17.98;6.80;;;7.00;99.90;;;;;;5090823;28;20048;-46
2023/04/15 10:22:03;;;;;;;48.58;19.60;;;7.10;99.90;;;;;;5091030;28;20048;-47
2023/04/15 10:24:32;;;;;;;9.20;4.85;;;7.10;99.90;;;;;;5090806;28;20123;-48
2023/04/15 10:27:00;;;;;;;41.88;15.25;;;6.80;99.90;;;;;;5082476;28;20044;-48
2023/04/15 10:29:27;;;;;;;36.90;14.73;;;6.70;99.90;;;;;;5076445;28;20036;-45
2023/04/15 10:31:55;;;;;;;94.50;34.85;;;6.80;99.90;;;;;;5111201;28;20035;-47
2023/04/15 10:34:25;;;;;;;23.83;8.63;;;7.10;99.90;;;;;;5111171;28;20069;-51
2023/04/15 10:36:56;;;;;;;34.15;12.82;;;7.00;99.90;;;;;;5089179;28;20082;-47
2023/04/15 10:39:32;;;;;;;17.33;8.48;;;6.80;99.90;;;;;;5080291;28;20037;-46
2023/04/15 10:42:07;;;;;;;33.53;12.38;;;6.80;99.90;;;;;;5072278;28;20044;-47
2023/04/15 10:44:56;;;;;;;41.95;14.75;;;6.80;99.90;;;;;;5079490;28;20082;-49
2023/04/15 10:47:22;;;;;;;32.63;11.77;;;6.80;99.90;;;;;;5084684;28;20067;-49
2023/04/15 10:49:55;;;;;;;29.10;10.25;;;6.90;99.90;;;;;;5106716;28;20122;-48
2023/04/15 10:52:26;;;;;;;38.88;12.95;;;6.90;99.90;;;;;;5068968;28;20094;-47
2023/04/15 10:55:22;;;;;;;21.40;7.53;;;6.80;99.90;;;;;;5071462;28;20618;-50
2023/04/15 10:57:53;;;;;;;28.25;9.73;;;6.70;99.90;;;;;;5081835;28;20049;-46
2023/04/15 11:00:24;;;;;;;21.08;6.88;;;6.80;99.90;;;;;;5070136;28;20059;-46
2023/04/15 11:02:55;;;;;;;23.02;7.50;;;6.80;99.90;;;;;;5073130;28;20036;-52
2023/04/15 11:05:49;;;;;;;12.00;4.95;;;6.90;99.90;;;;;;5080528;28;20417;-47
2023/04/15 11:08:17;;;;;;;6.57;3.50;;;6.90;99.90;;;;;;5070077;28;20044;-49
2023/04/15 11:10:44;;;;;;;6.75;2.60;;;6.90;99.90;;;;;;5080849;28;20492;-48
2023/04/15 11:13:10;;;;;;;4.20;2.22;;;6.90;99.90;;;;;;5085557;28;20115;-47
2023/04/15 11:15:41;;;;;;;5.88;2.00;;;6.90;99.90;;;;;;5088282;28;20040;-47
2023/04/15 11:18:09;;;;;;;6.40;3.15;;;6.70;99.90;;;;;;5093626;28;20443;-48
2023/04/15 11:20:37;;;;;;;10.20;4.45;;;6.70;99.90;;;;;;5085622;28;20043;-47
2023/04/15 11:23:05;;;;;;;11.48;5.18;;;6.70;99.90;;;;;;5093912;28;20086;-47
2023/04/15 11:25:41;;;;;;;8.27;3.70;;;6.90;99.90;;;;;;5108413;28;20046;-50
2023/04/15 11:28:09;;;;;;;10.15;4.20;;;7.00;99.90;;;;;;5082791;28;20052;-49
2023/04/15 11:30:37;;;;;;;5.65;2.95;;;7.10;99.90;;;;;;5076561;28;20044;-46
2023/04/15 11:33:07;;;;;;;6.75;2.17;;;7.30;99.90;;;;;;5081887;28;20040;-46
2023/04/15 11:35:34;;;;;;;4.60;2.13;;;7.30;99.90;;;;;;5088143;28;20408;-46
2023/04/15 11:38:07;;;;;;;;;;;7.40;99.90;;;;;;5084500;28;20520;-49
2023/04/15 11:40:35;;;;;;;7.85;3.50;;;7.50;99.90;;;;;;5083421;28;19924;-47
2023/04/15 11:43:10;;;;;;;4.25;2.42;;;7.60;99.90;;;;;;5088423;28;20489;-50
2023/04/15 11:45:46;;;;;;;6.85;3.47;;;7.60;99.90;;;;;;5083679;28;20413;-46
2023/04/15 11:48:13;;;;;;;6.57;3.70;;;7.80;99.90;;;;;;5089458;28;20032;-47
2023/04/15 11:50:40;;;;;;;8.02;3.90;;;7.80;99.90;;;;;;5066606;28;20036;-47
2023/04/15 11:53:08;;;;;;;6.60;3.28;;;8.00;99.90;;;;;;5081800;28;20037;-47
2023/04/15 11:55:46;;;;;;;4.25;2.25;;;8.20;99.90;;;;;;5082566;28;20063;-47
2023/04/15 11:58:19;;;;;;;6.30;3.47;;;8.40;99.90;;;;;;5081977;28;20068;-48
2023/04/15 12:01:12;;;;;;;8.25;2.00;;;8.50;99.90;;;;;;5084249;28;20048;-49
2023/04/15 12:03:47;;;;;;;6.32;3.00;;;8.40;99.90;;;;;;5086667;28;20056;-47
2023/04/15 12:06:23;;;;;;;6.45;2.53;;;8.70;99.90;;;;;;5090832;28;20056;-47
2023/04/15 12:09:08;;;;;;;7.03;3.40;;;8.80;99.90;;;;;;5092237;28;20118;-46
2023/04/15 12:11:47;;;;;;;11.05;4.43;;;8.90;99.90;;;;;;5112986;28;20044;-46
2023/04/15 12:14:30;;;;;;;7.35;3.58;;;8.90;99.90;;;;;;5086905;28;20109;-46
2023/04/15 12:16:58;;;;;;;4.07;2.13;;;8.70;99.90;;;;;;5084705;28;20036;-46
2023/04/15 12:19:33;;;;;;;4.35;1.83;;;8.60;99.90;;;;;;5082778;28;20036;-46
2023/04/15 12:22:05;;;;;;;8.55;3.25;;;8.50;99.90;;;;;;5080931;28;20044;-46
2023/04/15 12:24:33;;;;;;;10.80;4.18;;;8.40;99.90;;;;;;5082266;28;20078;-47
2023/04/15 12:27:04;;;;;;;12.25;4.85;;;8.60;99.90;;;;;;5082692;28;20051;-47
2023/04/15 12:29:32;;;;;;;6.22;3.30;;;8.90;99.90;;;;;;5082675;28;20044;-46
2023/04/15 12:32:11;;;;;;;5.68;2.15;;;9.00;99.90;;;;;;5080184;28;20489;-47
2023/04/15 12:34:58;;;;;;;5.25;2.30;;;8.60;99.90;;;;;;5080365;28;20036;-48
2023/04/15 12:37:25;;;;;;;7.22;2.42;;;8.30;99.90;;;;;;5080020;28;20048;-46
2023/04/15 12:39:52;;;;;;;4.82;2.15;;;8.50;99.90;;;;;;5085685;28;20082;-46
2023/04/15 12:42:19;;;;;;;4.45;1.77;;;8.70;99.90;;;;;;5082308;28;20051;-46
2023/04/15 12:44:46;;;;;;;3.53;1.65;;;8.40;99.90;;;;;;5081627;28;20043;-46
2023/04/15 12:47:13;;;;;;;3.42;2.00;;;8.00;99.90;;;;;;5085591;28;20050;-46
2023/04/15 12:49:41;;;;;;;1.77;1.35;;;8.00;99.90;;;;;;5094260;28;20044;-46
2023/04/15 12:52:07;;;;;;;4.07;1.27;;;8.10;99.90;;;;;;5112076;28;20043;-46
2023/04/15 12:54:35;;;;;;;4.55;1.58;;;7.90;99.90;;;;;;5112565;28;20093;-45
2023/04/15 12:57:02;;;;;;;;;;;7.80;99.90;;;;;;5092781;28;20036;-48
2023/04/15 12:59:32;;;;;;;3.10;1.70;;;7.60;99.90;;;;;;5064565;28;19920;-48
2023/04/15 13:01:59;;;;;;;3.08;1.73;;;7.50;99.90;;;;;;5073358;28;20055;-48